createdAt,value
2023-05-21T00:14:58.036Z,11.63
2023-05-21T00:22:34.413Z,12.10
2023-05-21T00:30:09.539Z,13.07
2023-05-21T00:37:46.073Z,12.70
2023-05-21T00:45:20.581Z,14.68
2023-05-21T00:52:55.935Z,13.93
2023-05-21T01:00:30.020Z,14.25
2023-05-21T01:15:59.549Z,14.05
2023-05-21T01:23:35.672Z,14.45
2023-05-21T01:31:23.715Z,13.50
2023-05-21T01:39:03.971Z,13.50
2023-05-21T01:46:40.193Z,14.10
2023-05-21T01:54:15.959Z,13.73
2023-05-21T02:01:50.530Z,13.98
2023-05-21T02:09:25.852Z,13.43
2023-05-21T02:24:52.371Z,14.32
2023-05-21T02:32:26.317Z,13.63
2023-05-21T02:40:02.520Z,13.88
2023-05-21T02:47:37.446Z,15.95
2023-05-21T02:55:12.966Z,14.88
2023-05-21T03:02:47.124Z,14.32
2023-05-21T03:10:22.629Z,19.43
2023-05-21T03:17:57.223Z,18.98
2023-05-21T03:25:32.740Z,19.33
2023-05-21T03:33:06.939Z,20.10
2023-05-21T03:40:42.384Z,20.90
2023-05-21T03:48:16.420Z,18.90
2023-05-21T03:55:55.513Z,21.35
2023-05-21T04:03:29.858Z,20.88
2023-05-21T04:11:05.264Z,18.87
2023-05-21T04:18:39.360Z,22.23
2023-05-21T04:26:16.225Z,23.20
2023-05-21T04:33:50.951Z,19.55
2023-05-21T04:41:26.219Z,23.25
2023-05-21T04:49:02.842Z,24.38
2023-05-21T04:56:38.025Z,23.30
2023-05-21T05:04:12.442Z,23.88
2023-05-21T05:11:47.637Z,25.87
2023-05-21T05:19:22.480Z,24.38
2023-05-21T05:26:57.706Z,25.10
2023-05-21T05:34:32.461Z,25.35
2023-05-21T05:42:07.850Z,25.05
2023-05-21T05:49:42.345Z,24.40
2023-05-21T05:57:17.819Z,21.47
2023-05-21T06:04:52.075Z,23.98
2023-05-21T06:12:27.798Z,24.13
2023-05-21T06:28:55.465Z,23.55
2023-05-21T06:44:23.080Z,21.02
2023-05-21T06:59:49.742Z,21.52
2023-05-21T07:07:23.622Z,20.10
2023-05-21T07:14:59.498Z,19.73
2023-05-21T07:22:33.396Z,19.55
2023-05-21T07:30:11.157Z,19.63
2023-05-21T07:45:38.129Z,18.23
2023-05-21T08:01:04.719Z,17.42
2023-05-21T08:08:38.654Z,15.85
2023-05-21T08:16:13.865Z,16.65
2023-05-21T08:23:47.687Z,16.17
2023-05-21T08:31:22.922Z,16.50
2023-05-21T08:38:56.783Z,14.63
2023-05-21T08:46:34.987Z,14.63
2023-05-21T08:54:39.934Z,13.43
2023-05-21T09:02:15.473Z,14.40
2023-05-21T09:09:56.295Z,13.15
2023-05-21T09:17:31.430Z,13.55
2023-05-21T09:25:09.399Z,12.68
2023-05-21T09:32:46.133Z,12.48
2023-05-21T09:40:21.290Z,12.38
2023-05-21T09:47:57.931Z,10.50
2023-05-21T09:55:32.116Z,10.68
2023-05-21T10:03:11.038Z,10.17
2023-05-21T10:10:45.942Z,8.45
2023-05-21T10:18:23.418Z,8.63
2023-05-21T10:25:57.926Z,9.02
2023-05-21T10:50:30.864Z,5.75
2023-05-21T10:58:37.280Z,6.50
2023-05-21T11:06:12.589Z,7.18
2023-05-21T11:13:48.763Z,6.60
2023-05-21T11:21:26.256Z,6.90
2023-05-21T11:29:09.662Z,7.63
2023-05-21T11:36:47.074Z,6.65
2023-05-21T11:44:39.175Z,7.15
2023-05-21T11:52:15.197Z,7.70
2023-05-21T11:59:51.273Z,6.18
2023-05-21T12:07:28.510Z,6.68
2023-05-21T12:15:03.085Z,7.25
2023-05-21T12:22:43.057Z,7.32
2023-05-21T12:30:16.905Z,7.03
2023-05-21T12:37:52.220Z,7.40
2023-05-21T12:45:26.532Z,6.93
2023-05-21T12:53:01.697Z,7.78
2023-05-21T13:00:35.955Z,6.88
2023-05-21T13:08:13.764Z,6.80
2023-05-21T13:15:47.634Z,7.15
2023-05-21T13:23:22.728Z,7.07
2023-05-21T13:30:56.685Z,8.57
2023-05-21T13:38:31.911Z,7.43
2023-05-21T13:46:05.968Z,6.78
2023-05-21T13:53:41.104Z,7.30
2023-05-21T14:01:14.905Z,7.00
2023-05-21T14:08:50.036Z,6.73
2023-05-21T14:16:24.936Z,6.55
2023-05-21T14:24:00.191Z,6.78
2023-05-21T14:40:28.759Z,7.65
2023-05-21T14:48:03.199Z,7.85
2023-05-21T15:03:13.521Z,7.30
2023-05-21T15:10:48.767Z,7.30
2023-05-21T15:18:24.606Z,6.68
2023-05-21T15:25:59.817Z,6.80
2023-05-21T15:33:33.597Z,6.75
2023-05-21T15:41:08.921Z,6.07
2023-05-21T15:48:42.737Z,6.43
2023-05-21T16:05:11.195Z,5.60
2023-05-21T16:12:45.106Z,5.72
2023-05-21T16:20:21.758Z,5.83
2023-05-21T16:27:57.569Z,6.25
2023-05-21T16:35:32.970Z,5.78
2023-05-21T16:43:07.176Z,5.35
2023-05-21T16:50:42.375Z,5.15
2023-05-21T16:58:16.431Z,6.20
2023-05-21T17:05:52.932Z,4.40
2023-05-21T17:13:26.812Z,5.10
2023-05-21T17:21:02.270Z,5.77
2023-05-21T17:28:36.535Z,6.40
2023-05-21T17:36:11.754Z,5.05
2023-05-21T17:43:45.614Z,4.80
2023-05-21T17:51:21.049Z,5.23
2023-05-21T17:58:55.099Z,5.85
2023-05-21T18:06:31.258Z,5.07
2023-05-21T18:14:05.153Z,5.53
2023-05-21T18:21:40.523Z,5.50
2023-05-21T18:29:15.121Z,4.82
2023-05-21T18:36:50.689Z,4.93
2023-05-21T18:44:24.503Z,5.07
2023-05-21T18:51:59.808Z,4.80
2023-05-21T18:59:35.328Z,4.82
2023-05-21T19:07:10.954Z,4.75
2023-05-21T19:14:45.187Z,4.95
2023-05-21T19:22:20.495Z,4.73
2023-05-21T19:29:54.611Z,5.65
2023-05-21T19:37:29.705Z,4.80
2023-05-21T19:45:04.332Z,4.85
2023-05-21T19:52:39.997Z,4.20
2023-05-21T20:00:15.843Z,4.65
2023-05-21T20:07:51.056Z,4.95
2023-05-21T20:15:24.888Z,5.05
2023-05-21T20:23:03.145Z,4.75
2023-05-21T20:30:53.400Z,4.63
2023-05-21T20:38:32.381Z,4.85
2023-05-21T20:46:06.298Z,4.13
2023-05-21T20:53:41.515Z,5.00
2023-05-21T21:01:17.593Z,5.03
2023-05-21T21:08:55.502Z,4.90
2023-05-21T21:25:24.330Z,4.22
2023-05-21T21:32:58.505Z,4.70
2023-05-21T21:40:33.849Z,5.10
2023-05-21T21:48:08.355Z,4.35
2023-05-21T21:55:43.617Z,4.60
2023-05-21T22:03:17.386Z,4.70
2023-05-21T22:10:52.593Z,5.03
2023-05-21T22:18:39.647Z,4.28
2023-05-21T22:26:16.044Z,4.45
2023-05-21T22:33:49.919Z,4.38
2023-05-21T22:41:25.418Z,4.72
2023-05-21T22:49:00.399Z,4.55
2023-05-21T23:04:10.595Z,4.72
2023-05-21T23:11:45.891Z,4.40
2023-05-21T23:19:19.944Z,4.95
2023-05-21T23:26:56.791Z,4.57
2023-05-21T23:34:30.871Z,4.40
2023-05-21T23:42:07.042Z,4.13
2023-05-21T23:49:40.974Z,4.10
2023-05-21T23:57:16.284Z,4.35
